createdAt,value
2023-02-12T00:00:29.235Z,27.45
2023-02-12T00:02:33.648Z,27.75
2023-02-12T00:04:36.599Z,32.08
2023-02-12T00:06:40.135Z,32.35
2023-02-12T00:08:43.002Z,32.35
2023-02-12T00:10:45.759Z,31.23
2023-02-12T00:12:48.501Z,28.73
2023-02-12T00:14:51.257Z,30.58
2023-02-12T00:16:54.044Z,33.95
2023-02-12T00:18:59.417Z,29.20
2023-02-12T00:21:03.174Z,34.83
2023-02-12T00:23:06.618Z,32.45
2023-02-12T00:25:09.739Z,30.90
2023-02-12T00:27:12.492Z,33.38
2023-02-12T00:29:15.704Z,32.63
2023-02-12T00:31:20.531Z,37.38
2023-02-12T00:33:24.097Z,31.15
2023-02-12T00:35:28.212Z,37.03
2023-02-12T00:37:31.601Z,33.15
2023-02-12T00:39:36.487Z,33.72
2023-02-12T00:41:39.220Z,32.97
2023-02-12T00:43:42.250Z,32.85
2023-02-12T00:45:45.819Z,34.20
2023-02-12T00:47:48.541Z,35.10
2023-02-12T00:49:51.622Z,34.35
2023-02-12T00:51:55.722Z,34.78
2023-02-12T00:53:58.525Z,34.33
2023-02-12T00:56:01.423Z,36.40
2023-02-12T00:58:04.304Z,35.47
2023-02-12T01:00:08.368Z,34.17
2023-02-12T01:02:11.396Z,36.47
2023-02-12T01:04:14.334Z,36.50
2023-02-12T01:06:17.252Z,38.45
2023-02-12T01:08:23.425Z,38.00
2023-02-12T01:10:26.661Z,38.70
2023-02-12T01:12:29.466Z,34.63
2023-02-12T01:14:32.284Z,34.58
2023-02-12T01:16:36.550Z,35.00
2023-02-12T01:18:40.409Z,32.30
2023-02-12T01:20:43.306Z,45.42
2023-02-12T01:22:46.622Z,36.35
2023-02-12T01:24:50.774Z,38.92
2023-02-12T01:26:53.575Z,38.50
2023-02-12T01:28:58.566Z,35.70
2023-02-12T01:31:02.100Z,37.30
2023-02-12T01:33:05.049Z,37.33
2023-02-12T01:35:10.828Z,36.78
2023-02-12T01:37:14.458Z,37.70
2023-02-12T01:39:17.190Z,34.97
2023-02-12T01:41:22.977Z,43.38
2023-02-12T01:43:25.729Z,37.50
2023-02-12T01:45:46.657Z,37.15
2023-02-12T01:47:49.540Z,39.75
2023-02-12T01:49:52.280Z,38.35
2023-02-12T01:51:59.844Z,37.97
2023-02-12T01:54:06.318Z,36.15
2023-02-12T01:56:10.521Z,39.10
2023-02-12T01:58:16.680Z,37.45
2023-02-12T02:00:23.710Z,37.63
2023-02-12T02:02:28.515Z,40.88
2023-02-12T02:04:37.804Z,37.75
2023-02-12T02:06:47.826Z,39.05
2023-02-12T02:08:51.904Z,38.47
2023-02-12T02:10:54.689Z,37.75
2023-02-12T02:13:15.156Z,41.65
2023-02-12T02:15:18.463Z,44.28
2023-02-12T02:17:41.666Z,39.42
2023-02-12T02:20:32.955Z,41.97
2023-02-12T02:22:42.232Z,37.90
2023-02-12T02:25:00.975Z,43.42
2023-02-12T02:27:15.962Z,39.92
2023-02-12T02:29:31.868Z,37.33
2023-02-12T02:31:42.475Z,35.47
2023-02-12T02:33:55.887Z,34.55
2023-02-12T02:36:13.797Z,31.98
2023-02-12T02:38:26.642Z,35.85
2023-02-12T02:40:36.051Z,33.17
2023-02-12T02:42:43.494Z,41.45
2023-02-12T02:44:51.881Z,57.13
2023-02-12T02:46:58.988Z,62.35
2023-02-12T02:49:06.201Z,67.15
2023-02-12T02:51:13.157Z,55.63
2023-02-12T02:53:20.889Z,53.85
2023-02-12T02:55:26.649Z,50.47
2023-02-12T02:57:32.859Z,66.30
2023-02-12T02:59:39.408Z,291.95
2023-02-12T03:01:48.007Z,174.50
2023-02-12T03:03:57.861Z,133.75
2023-02-12T03:06:06.425Z,98.90
2023-02-12T03:08:14.346Z,90.28
2023-02-12T03:10:20.562Z,86.25
2023-02-12T03:12:28.710Z,89.13
2023-02-12T03:14:35.782Z,52.58
2023-02-12T03:16:42.589Z,41.45
2023-02-12T03:18:51.336Z,43.90
2023-02-12T03:21:01.128Z,61.75
2023-02-12T03:23:07.952Z,88.07
2023-02-12T03:25:15.189Z,58.90
2023-02-12T03:27:23.783Z,50.13
2023-02-12T03:29:27.295Z,45.65
2023-02-12T03:31:37.175Z,43.88
2023-02-12T03:33:47.839Z,45.83
2023-02-12T03:36:03.243Z,38.92
2023-02-12T03:38:12.935Z,42.60
2023-02-12T03:40:21.590Z,42.65
2023-02-12T03:42:34.017Z,42.53
2023-02-12T03:44:48.526Z,38.60
2023-02-12T03:46:59.481Z,38.85
2023-02-12T03:49:05.894Z,35.97
2023-02-12T03:51:18.445Z,40.25
2023-02-12T03:53:21.477Z,37.40
2023-02-12T03:55:24.843Z,35.90
2023-02-12T03:57:32.201Z,34.10
2023-02-12T03:59:37.094Z,36.85
2023-02-12T04:01:40.039Z,38.72
2023-02-12T04:03:42.972Z,37.65
2023-02-12T04:05:45.740Z,35.38
2023-02-12T04:07:50.918Z,39.40
2023-02-12T04:09:53.717Z,39.47
2023-02-12T04:12:10.623Z,36.88
2023-02-12T04:14:22.210Z,41.03
2023-02-12T04:16:30.813Z,35.40
2023-02-12T04:18:40.182Z,38.40
2023-02-12T04:20:54.052Z,38.30
2023-02-12T04:23:15.463Z,40.65
2023-02-12T04:25:29.743Z,58.65
2023-02-12T04:27:38.934Z,45.47
2023-02-12T04:29:49.749Z,63.10
2023-02-12T04:31:57.155Z,65.93
2023-02-12T04:34:09.213Z,46.38
2023-02-12T04:36:16.568Z,41.35
2023-02-12T04:38:25.811Z,42.42
2023-02-12T04:40:29.369Z,52.97
2023-02-12T04:42:32.209Z,54.42
2023-02-12T04:44:38.506Z,50.63
2023-02-12T04:46:41.257Z,47.67
2023-02-12T04:48:52.858Z,40.58
2023-02-12T04:50:55.581Z,37.00
2023-02-12T04:52:58.254Z,34.80
2023-02-12T04:55:02.339Z,46.15
2023-02-12T04:57:05.075Z,40.75
2023-02-12T04:59:07.859Z,42.47
2023-02-12T05:01:11.464Z,41.50
2023-02-12T05:03:14.202Z,42.25
2023-02-12T05:05:17.021Z,42.95
2023-02-12T05:07:19.815Z,40.40
2023-02-12T05:09:23.429Z,41.13
2023-02-12T05:11:27.568Z,44.30
2023-02-12T05:13:30.301Z,40.53
2023-02-12T05:15:33.036Z,39.60
2023-02-12T05:17:35.964Z,44.88
2023-02-12T05:19:38.662Z,40.30
2023-02-12T05:21:41.476Z,44.17
2023-02-12T05:23:44.846Z,40.35
2023-02-12T05:25:47.602Z,44.90
2023-02-12T05:27:51.663Z,42.88
2023-02-12T05:29:54.389Z,40.35
2023-02-12T05:31:57.209Z,37.20
2023-02-12T05:34:00.248Z,35.08
2023-02-12T05:36:06.967Z,38.15
2023-02-12T05:38:09.904Z,40.25
2023-02-12T05:40:13.491Z,49.30
2023-02-12T05:42:16.178Z,41.13
2023-02-12T05:44:20.242Z,46.55
2023-02-12T05:46:23.434Z,52.30
2023-02-12T05:48:26.198Z,49.67
2023-02-12T05:50:29.040Z,47.85
2023-02-12T05:52:35.865Z,46.55
2023-02-12T05:54:38.538Z,46.97
2023-02-12T05:56:44.412Z,51.35
2023-02-12T05:58:49.379Z,39.67
2023-02-12T06:00:53.400Z,42.22
2023-02-12T06:02:56.173Z,47.03
2023-02-12T06:04:58.874Z,53.50
2023-02-12T06:07:02.196Z,49.47
2023-02-12T06:09:05.110Z,44.42
2023-02-12T06:11:09.539Z,44.90
2023-02-12T06:13:13.241Z,42.63
2023-02-12T06:15:16.175Z,39.40
2023-02-12T06:17:20.342Z,39.47
2023-02-12T06:19:24.322Z,43.58
2023-02-12T06:21:28.008Z,36.10
2023-02-12T06:23:30.891Z,38.97
2023-02-12T06:25:33.660Z,37.08
2023-02-12T06:27:36.387Z,35.65
2023-02-12T06:29:39.157Z,42.47
2023-02-12T06:31:42.375Z,39.47
2023-02-12T06:33:46.609Z,38.88
2023-02-12T06:35:49.481Z,36.72
2023-02-12T06:37:52.220Z,35.55
2023-02-12T06:39:54.973Z,38.08
2023-02-12T06:41:57.800Z,40.65
2023-02-12T06:44:00.824Z,46.08
2023-02-12T06:46:05.131Z,49.47
2023-02-12T06:48:07.972Z,47.38
2023-02-12T06:50:12.630Z,48.22
2023-02-12T06:52:15.367Z,49.95
2023-02-12T06:54:19.041Z,51.97
2023-02-12T06:56:23.227Z,43.60
2023-02-12T06:58:26.065Z,47.35
2023-02-12T07:00:28.950Z,46.10
2023-02-12T07:02:31.739Z,45.38
2023-02-12T07:04:34.460Z,52.20
2023-02-12T07:06:38.548Z,46.63
2023-02-12T07:08:41.786Z,45.72
2023-02-12T07:10:44.913Z,49.38
2023-02-12T07:12:47.973Z,47.25
2023-02-12T07:14:50.691Z,46.80
2023-02-12T07:16:55.679Z,47.33
2023-02-12T07:18:59.699Z,45.33
2023-02-12T07:21:02.455Z,43.08
2023-02-12T07:23:06.561Z,47.13
2023-02-12T07:25:09.586Z,45.85
2023-02-12T07:27:12.347Z,44.30
2023-02-12T07:29:15.481Z,43.25
2023-02-12T07:31:20.735Z,44.72
2023-02-12T07:33:23.655Z,41.67
2023-02-12T07:35:26.475Z,51.28
2023-02-12T07:37:29.215Z,44.95
2023-02-12T07:39:33.307Z,44.30
2023-02-12T07:41:37.445Z,43.85
2023-02-12T07:43:40.799Z,47.80
2023-02-12T07:45:44.784Z,46.28
2023-02-12T07:47:47.559Z,43.55
2023-02-12T07:49:50.312Z,44.85
2023-02-12T07:51:53.042Z,45.05
2023-02-12T07:53:56.104Z,38.80
2023-02-12T07:56:11.214Z,41.78
2023-02-12T07:58:13.922Z,39.05
2023-02-12T08:00:17.742Z,42.30
2023-02-12T08:02:21.193Z,42.25
2023-02-12T08:04:25.344Z,39.00
2023-02-12T08:06:30.937Z,36.22
2023-02-12T08:08:33.728Z,35.72
2023-02-12T08:10:36.450Z,36.10
2023-02-12T08:12:40.542Z,39.83
2023-02-12T08:14:43.261Z,37.70
2023-02-12T08:16:47.678Z,44.55
2023-02-12T08:18:50.852Z,41.08
2023-02-12T08:20:53.561Z,41.22
2023-02-12T08:22:56.280Z,46.03
2023-02-12T08:24:58.993Z,39.83
2023-02-12T08:27:01.753Z,41.00
2023-02-12T08:29:09.007Z,46.45
2023-02-12T08:31:14.368Z,47.38
2023-02-12T08:33:17.107Z,41.42
2023-02-12T08:35:19.860Z,42.53
2023-02-12T08:37:22.554Z,43.17
2023-02-12T08:39:26.702Z,44.95
2023-02-12T08:41:31.236Z,43.20
2023-02-12T08:43:34.452Z,42.35
2023-02-12T08:45:38.581Z,41.10
2023-02-12T08:47:41.326Z,41.30
2023-02-12T08:49:44.048Z,40.85
2023-02-12T08:51:49.247Z,39.83
2023-02-12T08:53:54.431Z,42.78
2023-02-12T08:55:57.396Z,41.78
2023-02-12T08:58:01.274Z,42.08
2023-02-12T09:00:04.885Z,40.58
2023-02-12T09:02:11.419Z,39.33
2023-02-12T09:04:17.766Z,41.85
2023-02-12T09:06:23.087Z,41.05
2023-02-12T09:08:25.978Z,39.75
2023-02-12T09:10:28.695Z,44.78
2023-02-12T09:12:31.388Z,39.83
2023-02-12T09:14:34.077Z,36.65
2023-02-12T09:16:39.627Z,41.88
2023-02-12T09:18:45.100Z,40.85
2023-02-12T09:20:47.782Z,44.00
2023-02-12T09:22:50.778Z,40.85
2023-02-12T09:24:53.427Z,48.85
2023-02-12T09:26:56.316Z,36.75
2023-02-12T09:28:59.203Z,35.95
2023-02-12T09:31:06.314Z,36.40
2023-02-12T09:33:12.758Z,36.42
2023-02-12T09:35:18.368Z,33.38
2023-02-12T09:37:21.202Z,32.10
2023-02-12T09:39:24.035Z,31.27
2023-02-12T09:41:48.685Z,33.40
2023-02-12T09:43:57.497Z,35.50
2023-02-12T09:46:06.202Z,30.33
2023-02-12T09:48:30.818Z,31.42
2023-02-12T09:50:44.042Z,28.60
2023-02-12T09:52:47.519Z,24.98
2023-02-12T09:54:51.434Z,25.17
2023-02-12T09:56:58.387Z,26.95
2023-02-12T09:59:06.148Z,21.15
2023-02-12T10:01:13.870Z,18.08
2023-02-12T10:03:18.571Z,21.55
2023-02-12T10:05:27.735Z,19.52
2023-02-12T10:07:49.734Z,17.38
2023-02-12T10:10:14.479Z,16.30
2023-02-12T10:12:25.471Z,16.88
2023-02-12T10:14:52.891Z,13.88
2023-02-12T10:17:04.791Z,13.32
2023-02-12T10:19:24.006Z,15.27
2023-02-12T10:21:40.659Z,14.50
2023-02-12T10:24:00.556Z,14.43
2023-02-12T10:26:12.647Z,18.83
2023-02-12T10:28:19.627Z,15.25
2023-02-12T10:30:25.382Z,9.57
2023-02-12T10:32:31.745Z,9.15
2023-02-12T10:34:36.484Z,9.02
2023-02-12T10:36:43.717Z,9.10
2023-02-12T10:38:51.845Z,8.75
2023-02-12T10:40:57.535Z,8.02
2023-02-12T10:43:01.994Z,9.23
2023-02-12T10:45:05.208Z,10.20
2023-02-12T10:47:08.599Z,9.20
2023-02-12T10:49:14.415Z,16.63
2023-02-12T10:51:36.147Z,22.23
2023-02-12T10:53:40.931Z,8.32
2023-02-12T10:55:45.041Z,9.90
2023-02-12T10:57:47.831Z,9.65
2023-02-12T10:59:53.132Z,9.05
2023-02-12T11:01:55.967Z,9.80
2023-02-12T11:04:00.864Z,9.13
2023-02-12T11:06:14.577Z,8.50
2023-02-12T11:08:31.998Z,7.90
2023-02-12T11:10:39.459Z,6.85
2023-02-12T11:12:48.083Z,7.65
2023-02-12T11:14:51.946Z,8.30
2023-02-12T11:16:57.120Z,9.43
2023-02-12T11:19:02.095Z,8.90
2023-02-12T11:21:07.441Z,6.70
2023-02-12T11:23:26.274Z,7.15
2023-02-12T11:25:30.783Z,11.25
2023-02-12T11:27:33.514Z,8.10
2023-02-12T11:29:37.614Z,11.07
2023-02-12T11:31:41.605Z,13.10
2023-02-12T11:33:45.662Z,5.80
2023-02-12T11:35:54.503Z,7.03
2023-02-12T11:37:59.582Z,15.10
2023-02-12T11:40:02.394Z,11.52
2023-02-12T11:42:14.803Z,12.68
2023-02-12T11:44:21.750Z,10.00
2023-02-12T11:46:28.762Z,8.00
2023-02-12T11:48:34.922Z,7.40
2023-02-12T11:50:38.874Z,7.65
2023-02-12T11:52:42.222Z,8.93
2023-02-12T11:54:48.468Z,6.85
2023-02-12T11:56:51.552Z,7.90
2023-02-12T11:58:56.114Z,6.47
2023-02-12T12:01:19.693Z,13.98
2023-02-12T12:03:28.724Z,11.10
2023-02-12T12:05:36.294Z,7.13
2023-02-12T12:07:44.767Z,5.50
2023-02-12T12:09:52.497Z,5.35
2023-02-12T12:12:03.646Z,5.80
2023-02-12T12:14:15.301Z,5.22
2023-02-12T12:16:44.044Z,5.35
2023-02-12T12:19:11.133Z,6.50
2023-02-12T12:21:20.932Z,4.82
2023-02-12T12:23:31.330Z,7.70
2023-02-12T12:25:41.926Z,6.85
2023-02-12T12:28:05.455Z,8.38
2023-02-12T12:30:17.380Z,5.57
2023-02-12T12:32:22.265Z,6.70
2023-02-12T12:34:28.269Z,8.93
2023-02-12T12:37:04.760Z,5.30
2023-02-12T12:39:26.292Z,8.25
2023-02-12T12:41:42.495Z,15.73
2023-02-12T12:43:58.438Z,10.60
2023-02-12T12:46:14.457Z,5.82
2023-02-12T12:48:30.332Z,7.35
2023-02-12T12:50:51.744Z,6.50
2023-02-12T12:53:14.930Z,10.07
2023-02-12T12:55:31.205Z,8.80
2023-02-12T12:57:47.420Z,8.73
2023-02-12T13:00:09.225Z,8.00
2023-02-12T13:02:59.899Z,6.57
2023-02-12T13:05:30.714Z,9.90
2023-02-12T13:07:49.950Z,6.93
2023-02-12T13:10:02.816Z,7.78
2023-02-12T13:12:24.656Z,7.30
2023-02-12T13:14:43.379Z,7.93
2023-02-12T13:16:50.464Z,7.53
2023-02-12T13:19:05.702Z,9.18
2023-02-12T13:21:17.006Z,8.07
2023-02-12T13:23:29.302Z,8.02
2023-02-12T13:25:38.261Z,9.32
2023-02-12T13:27:42.335Z,9.70
2023-02-12T13:29:49.292Z,8.98
2023-02-12T13:31:56.211Z,9.32
2023-02-12T13:34:01.799Z,16.37
2023-02-12T13:36:07.241Z,22.60
2023-02-12T13:38:16.928Z,9.13
2023-02-12T13:40:24.198Z,9.53
2023-02-12T13:42:45.170Z,10.87
2023-02-12T13:44:56.549Z,10.27
2023-02-12T13:47:07.931Z,8.90
2023-02-12T13:49:19.976Z,9.70
2023-02-12T13:51:31.764Z,7.80
2023-02-12T13:53:46.185Z,8.60
2023-02-12T13:56:05.932Z,7.70
2023-02-12T13:58:47.721Z,7.83
2023-02-12T14:01:01.511Z,7.13
2023-02-12T14:03:10.005Z,8.50
2023-02-12T14:05:21.297Z,6.40
2023-02-12T14:07:24.516Z,6.27
2023-02-12T14:09:33.951Z,7.20
2023-02-12T14:11:49.634Z,6.23
2023-02-12T14:13:56.367Z,5.53
2023-02-12T14:15:59.885Z,5.57
2023-02-12T14:18:24.724Z,5.63
2023-02-12T14:20:30.647Z,5.27
2023-02-12T14:23:03.242Z,4.83
2023-02-12T14:25:33.368Z,6.00
2023-02-12T14:27:47.112Z,5.40
2023-02-12T14:30:02.581Z,5.97
2023-02-12T14:32:58.099Z,8.13
2023-02-12T14:35:30.582Z,5.47
2023-02-12T14:37:39.229Z,6.73
2023-02-12T14:39:41.995Z,7.47
2023-02-12T14:41:44.745Z,7.03
2023-02-12T14:44:03.801Z,6.07
2023-02-12T14:46:40.118Z,8.20
2023-02-12T14:48:52.478Z,4.57
2023-02-12T14:50:56.485Z,4.47
2023-02-12T14:53:06.050Z,9.73
2023-02-12T14:55:21.132Z,5.03
2023-02-12T14:57:27.079Z,6.20
2023-02-12T14:59:37.173Z,5.03
2023-02-12T15:01:40.253Z,5.03
2023-02-12T15:03:49.505Z,8.93
2023-02-12T15:06:09.457Z,5.80
2023-02-12T15:08:20.507Z,4.40
2023-02-12T15:10:25.962Z,5.20
2023-02-12T15:12:33.674Z,5.77
2023-02-12T15:14:43.517Z,5.03
2023-02-12T15:16:59.706Z,7.00
2023-02-12T15:19:11.908Z,8.90
2023-02-12T15:21:21.774Z,14.27
2023-02-12T15:23:37.842Z,10.60
2023-02-12T15:25:41.184Z,8.90
2023-02-12T15:27:44.617Z,13.83
2023-02-12T15:29:51.018Z,13.53
2023-02-12T15:31:56.254Z,6.27
2023-02-12T15:34:01.446Z,8.63
2023-02-12T15:36:05.661Z,9.77
2023-02-12T15:38:09.554Z,4.33
2023-02-12T15:40:16.172Z,4.33
2023-02-12T15:42:28.305Z,4.20
2023-02-12T15:44:32.932Z,4.27
2023-02-12T15:46:37.041Z,4.80
2023-02-12T15:48:40.500Z,5.90
2023-02-12T15:50:54.137Z,4.50
2023-02-12T15:52:57.588Z,14.97
2023-02-12T15:55:00.480Z,13.17
2023-02-12T15:57:11.441Z,8.10
2023-02-12T15:59:21.557Z,6.40
2023-02-12T16:01:25.906Z,4.27
2023-02-12T16:03:32.365Z,4.65
2023-02-12T16:05:35.738Z,10.20
2023-02-12T16:07:39.550Z,6.60
2023-02-12T16:09:43.783Z,7.63
2023-02-12T16:11:49.275Z,5.95
2023-02-12T16:13:54.999Z,5.50
2023-02-12T16:16:09.516Z,8.07
2023-02-12T16:18:24.641Z,11.25
2023-02-12T16:20:30.651Z,11.98
2023-02-12T16:22:35.012Z,9.05
2023-02-12T16:24:40.331Z,6.68
2023-02-12T16:26:47.711Z,5.97
2023-02-12T16:28:53.271Z,7.25
2023-02-12T16:31:09.191Z,7.15
2023-02-12T16:33:33.955Z,7.05
2023-02-12T16:35:38.351Z,7.50
2023-02-12T16:37:48.613Z,8.82
2023-02-12T16:40:21.397Z,6.45
2023-02-12T16:42:29.263Z,6.45
2023-02-12T16:44:34.386Z,29.58
2023-02-12T16:46:47.020Z,31.80
2023-02-12T16:48:52.698Z,16.10
2023-02-12T16:51:02.677Z,8.95
2023-02-12T16:53:08.050Z,7.72
2023-02-12T16:55:14.993Z,6.63
2023-02-12T16:57:17.711Z,5.93
2023-02-12T16:59:20.418Z,6.30
2023-02-12T17:01:26.089Z,7.70
2023-02-12T17:03:29.378Z,5.35
2023-02-12T17:05:32.212Z,6.82
2023-02-12T17:07:36.349Z,5.78
2023-02-12T17:09:39.114Z,6.05
2023-02-12T17:11:42.204Z,5.70
2023-02-12T17:13:46.201Z,6.63
2023-02-12T17:15:53.855Z,14.85
2023-02-12T17:17:56.770Z,13.90
2023-02-12T17:19:59.551Z,58.60
2023-02-12T17:22:03.568Z,12.40
2023-02-12T17:24:13.368Z,9.02
2023-02-12T17:26:16.602Z,11.13
2023-02-12T17:28:19.561Z,13.38
2023-02-12T17:30:24.155Z,27.05
2023-02-12T17:32:26.908Z,22.88
2023-02-12T17:34:34.123Z,13.38
2023-02-12T17:36:42.597Z,11.30
2023-02-12T17:38:45.438Z,6.70
2023-02-12T17:40:49.538Z,6.90
2023-02-12T17:42:52.390Z,6.25
2023-02-12T17:44:55.331Z,4.95
2023-02-12T17:46:58.919Z,6.10
2023-02-12T17:49:01.674Z,5.50
2023-02-12T17:51:04.668Z,5.88
2023-02-12T17:53:07.846Z,6.07
2023-02-12T17:55:13.749Z,6.57
2023-02-12T17:57:18.506Z,5.97
2023-02-12T17:59:21.268Z,6.40
2023-02-12T18:01:25.271Z,6.13
2023-02-12T18:03:28.114Z,6.35
2023-02-12T18:05:30.832Z,8.23
2023-02-12T18:07:34.474Z,36.95
2023-02-12T18:09:38.632Z,67.50
2023-02-12T18:11:42.340Z,26.25
2023-02-12T18:13:47.114Z,18.42
2023-02-12T18:15:49.895Z,14.50
2023-02-12T18:17:52.663Z,9.15
2023-02-12T18:19:55.678Z,9.45
2023-02-12T18:21:58.528Z,9.00
2023-02-12T18:24:01.450Z,9.10
2023-02-12T18:26:07.302Z,8.23
2023-02-12T18:28:10.590Z,10.52
2023-02-12T18:30:15.331Z,10.30
2023-02-12T18:32:18.119Z,10.45
2023-02-12T18:34:20.903Z,9.80
2023-02-12T18:36:24.092Z,10.48
2023-02-12T18:38:27.432Z,10.80
2023-02-12T18:40:30.246Z,11.73
2023-02-12T18:42:33.411Z,12.80
2023-02-12T18:44:36.958Z,14.05
2023-02-12T18:46:41.349Z,13.90
2023-02-12T18:48:44.798Z,14.35
2023-02-12T18:50:51.554Z,13.65
2023-02-12T18:52:55.655Z,14.93
2023-02-12T18:54:58.504Z,16.00
2023-02-12T18:57:01.250Z,11.90
2023-02-12T18:59:06.043Z,41.50
2023-02-12T19:01:16.893Z,27.35
2023-02-12T19:03:21.563Z,19.30
2023-02-12T19:05:26.265Z,15.80
2023-02-12T19:07:29.061Z,12.90
2023-02-12T19:09:31.817Z,12.68
2023-02-12T19:11:35.252Z,31.80
2023-02-12T19:13:38.811Z,34.92
2023-02-12T19:15:41.943Z,33.00
2023-02-12T19:17:44.841Z,30.52
2023-02-12T19:19:50.382Z,34.30
2023-02-12T19:21:53.139Z,30.60
2023-02-12T19:23:56.906Z,19.83
2023-02-12T19:26:04.337Z,16.02
2023-02-12T19:28:07.093Z,14.18
2023-02-12T19:30:10.654Z,13.52
2023-02-12T19:32:13.464Z,15.35
2023-02-12T19:34:19.519Z,15.40
2023-02-12T19:36:23.833Z,12.68
2023-02-12T19:38:26.905Z,11.55
2023-02-12T19:40:29.697Z,11.13
2023-02-12T19:42:33.745Z,9.90
2023-02-12T19:44:36.664Z,11.82
2023-02-12T19:46:40.560Z,11.35
2023-02-12T19:48:43.679Z,13.43
2023-02-12T19:50:46.746Z,12.80
2023-02-12T19:52:50.846Z,11.23
2023-02-12T19:54:53.856Z,8.88
2023-02-12T19:56:56.771Z,9.02
2023-02-12T19:58:59.616Z,7.85
2023-02-12T20:01:02.360Z,8.90
2023-02-12T20:03:05.219Z,8.18
2023-02-12T20:05:08.332Z,8.82
2023-02-12T20:07:11.414Z,9.00
2023-02-12T20:09:15.942Z,12.18
2023-02-12T20:11:20.876Z,7.97
2023-02-12T20:13:23.589Z,9.60
2023-02-12T20:15:26.431Z,7.75
2023-02-12T20:17:29.220Z,7.93
2023-02-12T20:19:33.106Z,8.30
2023-02-12T20:21:35.973Z,11.93
2023-02-12T20:23:39.574Z,18.73
2023-02-12T20:25:46.947Z,27.23
2023-02-12T20:27:50.956Z,42.42
2023-02-12T20:29:53.803Z,36.45
2023-02-12T20:31:56.825Z,28.75
2023-02-12T20:34:02.531Z,17.95
2023-02-12T20:36:05.930Z,14.90
2023-02-12T20:38:08.990Z,11.05
2023-02-12T20:40:12.499Z,9.95
2023-02-12T20:42:16.566Z,9.80
2023-02-12T20:44:21.256Z,9.57
2023-02-12T20:46:25.734Z,8.48
2023-02-12T20:48:28.507Z,9.85
2023-02-12T20:50:31.253Z,10.90
2023-02-12T20:52:34.365Z,9.65
2023-02-12T20:54:39.100Z,12.25
2023-02-12T20:56:41.919Z,12.43
2023-02-12T20:58:46.249Z,13.25
2023-02-12T21:00:49.046Z,23.98
2023-02-12T21:02:53.423Z,24.52
2023-02-12T21:04:56.370Z,22.67
2023-02-12T21:06:59.072Z,17.17
2023-02-12T21:09:02.352Z,12.88
2023-02-12T21:11:07.781Z,14.02
2023-02-12T21:13:10.519Z,16.15
2023-02-12T21:15:14.604Z,15.30
2023-02-12T21:17:17.691Z,13.50
2023-02-12T21:19:20.933Z,14.43
2023-02-12T21:21:25.696Z,11.02
2023-02-12T21:23:28.410Z,11.77
2023-02-12T21:25:31.129Z,10.73
2023-02-12T21:27:33.878Z,14.00
2023-02-12T21:29:36.648Z,9.93
2023-02-12T21:31:42.072Z,10.55
2023-02-12T21:33:46.744Z,11.40
2023-02-12T21:35:49.479Z,10.52
2023-02-12T21:37:52.160Z,11.20
2023-02-12T21:39:54.870Z,11.57
2023-02-12T21:41:59.957Z,10.77
2023-02-12T21:44:05.575Z,10.18
2023-02-12T21:46:09.194Z,11.05
2023-02-12T21:48:13.287Z,11.32
2023-02-12T21:50:16.177Z,13.35
2023-02-12T21:52:18.938Z,13.43
2023-02-12T21:54:22.574Z,12.50
2023-02-12T21:56:26.331Z,15.05
2023-02-12T21:58:29.066Z,11.07
2023-02-12T22:00:31.939Z,13.73
2023-02-12T22:02:34.866Z,14.45
2023-02-12T22:04:39.427Z,14.02
2023-02-12T22:06:45.953Z,14.27
2023-02-12T22:08:49.200Z,12.90
2023-02-12T22:10:51.963Z,14.63
2023-02-12T22:12:54.891Z,12.93
2023-02-12T22:14:57.646Z,14.95
2023-02-12T22:17:00.424Z,14.85
2023-02-12T22:19:04.180Z,16.27
2023-02-12T22:21:12.774Z,15.32
2023-02-12T22:23:15.892Z,16.85
2023-02-12T22:25:18.664Z,16.23
2023-02-12T22:27:21.409Z,15.13
2023-02-12T22:29:24.116Z,13.60
2023-02-12T22:31:29.362Z,16.08
2023-02-12T22:33:32.250Z,16.42
2023-02-12T22:35:34.990Z,22.33
2023-02-12T22:37:41.343Z,20.85
2023-02-12T22:39:44.156Z,24.48
2023-02-12T22:41:47.252Z,21.08
2023-02-12T22:43:50.387Z,19.67
2023-02-12T22:45:53.223Z,16.05
2023-02-12T22:47:55.951Z,17.35
2023-02-12T22:49:59.009Z,15.43
2023-02-12T22:52:01.744Z,15.93
2023-02-12T22:54:07.134Z,14.65
2023-02-12T22:56:10.194Z,13.82
2023-02-12T22:58:12.961Z,14.70
2023-02-12T23:00:16.930Z,15.20
2023-02-12T23:02:19.805Z,16.77
2023-02-12T23:04:22.654Z,17.15
2023-02-12T23:06:30.469Z,13.02
2023-02-12T23:08:33.801Z,13.57
2023-02-12T23:10:37.897Z,13.20
2023-02-12T23:12:40.689Z,15.48
2023-02-12T23:14:43.428Z,13.63
2023-02-12T23:16:46.373Z,13.82
2023-02-12T23:18:49.429Z,15.05
2023-02-12T23:20:53.138Z,14.35
2023-02-12T23:22:56.280Z,14.38
2023-02-12T23:24:59.107Z,14.00
2023-02-12T23:27:03.267Z,12.93
2023-02-12T23:29:05.994Z,13.90
2023-02-12T23:31:08.846Z,14.93
2023-02-12T23:33:11.734Z,13.55
2023-02-12T23:35:14.581Z,15.10
2023-02-12T23:37:17.302Z,13.48
2023-02-12T23:39:20.089Z,13.00
2023-02-12T23:41:22.808Z,14.35
2023-02-12T23:43:26.907Z,13.25
2023-02-12T23:45:29.967Z,12.50
2023-02-12T23:47:32.668Z,12.80
2023-02-12T23:49:36.956Z,12.52
2023-02-12T23:51:39.701Z,13.52
2023-02-12T23:53:42.462Z,12.98
2023-02-12T23:55:45.469Z,13.20
2023-02-12T23:57:49.734Z,12.45
2023-02-12T23:59:54.605Z,13.10
